Masbate, Philippines
Current Conditions -  °F | °C
As of 12:00 PM on Sunday 21 Dec 2014 (Local Time) from RPVM Reporting Station
Scattered Clouds Scattered Clouds  
Wind Chill: 86°   Ceiling: Unl
Heat Index: 92°   Visibility: 6mi
Dew Point: 72°   Wind: 15mph
Humidity: 62%   Direction: 30°NNE
Pressure: 29.83"   Gusts: NA
Location:  12.37°N, 123.62°E
Report Text: RPVM 210400Z 03013KT 9999 FEW020 SCT300 30/22 Q1010 RMK A2983
Loading
Personal Weather Stations






























Interactive Weather Map New forecast layout! Learn more

10-Day Weather Forecast

Advertisements
Track Severe Weather on mobile